Time;durP1;ratioP1;P1;durP2;ratioP2;P2;SDS_P1;SDS_P2;PMS_P1;PMS_P2;Temp;Humidity;BMP_temperature;BMP_pressure;BME280_temperature;BME280_humidity;BME280_pressure;Samples;Min_cycle;Max_cycle;Signal;HPM_P1;HPM_P2
2021/05/16 00:01:40;;;;;;;10.00;6.63;;;;;;;13.36;69.74;99376.69;127611;1106;22370;-77
2021/05/16 00:04:09;;;;;;;8.90;6.13;;;;;;;13.41;70.11;99374.20;127536;1105;22377;-77
2021/05/16 00:06:39;;;;;;;8.98;6.08;;;;;;;13.44;70.48;99380.94;127598;1104;23691;-77
2021/05/16 00:09:09;;;;;;;8.15;5.18;;;;;;;13.44;70.50;99375.64;128049;1104;22430;-76
2021/05/16 00:11:38;;;;;;;6.73;5.38;;;;;;;13.45;70.58;99374.59;127988;1101;24485;-75
2021/05/16 00:14:08;;;;;;;8.40;5.58;;;;;;;13.44;70.57;99366.87;127965;1104;22490;-75
2021/05/16 00:16:38;;;;;;;9.95;6.95;;;;;;;13.44;70.70;99362.37;128000;1101;22371;-76
2021/05/16 00:19:08;;;;;;;6.13;5.30;;;;;;;13.44;71.15;99362.37;128261;1101;22363;-76
2021/05/16 00:21:38;;;;;;;8.68;5.30;;;;;;;13.46;70.86;99362.14;128287;1101;22335;-75
2021/05/16 00:24:08;;;;;;;7.00;6.30;;;;;;;13.44;71.05;99361.56;128211;1101;22342;-75
2021/05/16 00:26:38;;;;;;;7.13;5.97;;;;;;;13.45;71.00;99350.72;128218;1098;22348;-76
2021/05/16 00:29:09;;;;;;;6.75;5.55;;;;;;;13.46;71.21;99348.88;128047;1102;22327;-76
2021/05/16 00:31:38;;;;;;;9.30;6.60;;;;;;;13.45;71.24;99342.77;128249;1101;22334;-76
2021/05/16 00:34:08;;;;;;;8.03;6.38;;;;;;;13.41;70.96;99345.03;128243;1098;22346;-75
2021/05/16 00:36:38;;;;;;;7.63;5.95;;;;;;;13.38;71.53;99345.45;128059;1098;22971;-76
2021/05/16 00:39:08;;;;;;;7.90;5.73;;;;;;;13.35;71.65;99342.41;128233;1101;22963;-76
2021/05/16 00:41:38;;;;;;;9.93;5.70;;;;;;;13.34;71.77;99340.78;128069;1101;22620;-75
2021/05/16 00:44:08;;;;;;;8.03;6.00;;;;;;;13.37;71.92;99349.13;128249;1101;22334;-75
2021/05/16 00:46:37;;;;;;;7.30;6.28;;;;;;;13.39;72.17;99355.05;128340;1100;22333;-75
2021/05/16 00:49:07;;;;;;;7.98;5.88;;;;;;;13.42;72.13;99369.71;128268;1098;22417;-76
2021/05/16 00:51:38;;;;;;;8.30;6.48;;;;;;;13.45;72.38;99387.05;128303;1101;22498;-75
2021/05/16 00:54:08;;;;;;;7.83;6.25;;;;;;;13.48;72.38;99389.29;128308;1098;22785;-75
2021/05/16 00:56:39;;;;;;;7.80;5.83;;;;;;;13.48;72.89;99383.98;128281;1098;22782;-74
2021/05/16 00:59:09;;;;;;;8.45;6.75;;;;;;;13.47;72.76;99383.17;128310;1098;22327;-76
2021/05/16 01:01:39;;;;;;;8.80;6.13;;;;;;;13.47;72.75;99380.52;128285;1101;22327;-75
2021/05/16 01:04:09;;;;;;;9.58;7.10;;;;;;;13.48;73.26;99381.33;128269;1101;22352;-76
2021/05/16 01:06:39;;;;;;;10.65;6.48;;;;;;;13.49;73.12;99381.11;128266;1101;22348;-76
2021/05/16 01:09:09;;;;;;;7.53;6.53;;;;;;;13.46;73.13;99376.22;128231;1101;22316;-76
2021/05/16 01:11:43;;;;;;;10.05;6.93;;;;;;;13.42;73.24;99373.17;128257;1101;22609;-76
2021/05/16 01:14:21;;;;;;;6.90;5.73;;;;;;;13.38;73.26;99384.42;128290;1098;22358;-74
2021/05/16 01:16:51;;;;;;;7.53;6.73;;;;;;;13.34;73.31;99383.22;127942;1101;22370;-75
2021/05/16 01:19:20;;;;;;;6.80;5.83;;;;;;;13.33;73.78;99377.11;127989;1104;22371;-76
2021/05/16 01:21:53;;;;;;;6.83;6.00;;;;;;;13.33;73.60;99369.15;127976;1104;22484;-76
2021/05/16 01:24:26;;;;;;;8.95;5.80;;;;;;;13.31;74.01;99368.53;127997;1104;22348;-74
2021/05/16 01:27:02;;;;;;;8.23;5.55;;;;;;;13.29;73.66;99367.91;127942;1104;22401;-74
2021/05/16 01:29:32;;;;;;;7.95;5.90;;;;;;;13.31;73.72;99365.07;127989;1104;22684;-75
2021/05/16 01:32:02;;;;;;;6.45;5.00;;;;;;;13.28;73.75;99355.69;127956;1104;22637;-75
2021/05/16 01:34:33;;;;;;;7.43;5.25;;;;;;;13.25;73.85;99348.15;128068;1098;25083;-75
2021/05/16 01:37:03;;;;;;;5.38;4.83;;;;;;;13.23;73.87;99344.88;128280;1098;24557;-76
2021/05/16 01:39:33;;;;;;;7.90;4.88;;;;;;;13.24;74.22;99349.18;128325;1101;22333;-76
2021/05/16 01:42:04;;;;;;;6.25;4.80;;;;;;;13.23;74.37;99347.53;128067;1098;22345;-76
2021/05/16 01:44:35;;;;;;;5.10;4.60;;;;;;;13.22;74.46;99343.23;128077;1098;22384;-76
2021/05/16 01:47:05;;;;;;;5.38;4.53;;;;;;;13.19;74.41;99339.18;128319;1101;23218;-75
2021/05/16 01:49:44;;;;;;;4.65;3.88;;;;;;;13.14;74.32;99333.67;128257;1101;22348;-75
2021/05/16 01:52:14;;;;;;;5.13;4.05;;;;;;;13.08;74.31;99337.16;128268;1098;22426;-75
2021/05/16 01:54:44;;;;;;;6.28;5.00;;;;;;;13.07;74.60;99329.42;128271;1101;23117;-76
2021/05/16 01:57:14;;;;;;;6.05;4.60;;;;;;;13.08;74.53;99337.16;128232;1101;22254;-75
2021/05/16 01:59:45;;;;;;;5.93;4.90;;;;;;;13.08;74.71;99334.50;128302;1101;23202;-75
2021/05/16 02:02:15;;;;;;;4.28;3.88;;;;;;;13.08;74.76;99326.55;128292;1101;22344;-75
2021/05/16 02:04:46;;;;;;;5.38;4.30;;;;;;;13.08;74.87;99331.86;128063;1098;24985;-75
2021/05/16 02:07:17;;;;;;;4.73;4.33;;;;;;;13.06;74.91;99325.97;128279;1101;22347;-75
2021/05/16 02:09:48;;;;;;;4.48;4.08;;;;;;;13.04;74.90;99329.84;128353;1101;22486;-75
2021/05/16 02:12:19;;;;;;;5.30;4.73;;;;;;;13.02;75.17;99326.57;128296;1098;22328;-75
2021/05/16 02:14:50;;;;;;;5.60;4.40;;;;;;;13.00;75.03;99328.64;128006;1098;24240;-76
2021/05/16 02:17:20;;;;;;;5.75;4.35;;;;;;;12.96;75.07;99322.91;128241;1102;22348;-76
2021/05/16 02:19:50;;;;;;;5.45;4.88;;;;;;;12.94;75.56;99323.13;128049;1098;24466;-75
2021/05/16 02:22:20;;;;;;;5.93;4.95;;;;;;;12.93;75.16;99313.56;128276;1101;22326;-75
2021/05/16 02:24:51;;;;;;;6.08;5.23;;;;;;;12.91;75.35;99307.64;128008;1101;22998;-76
2021/05/16 02:27:28;;;;;;;6.15;5.20;;;;;;;12.89;75.40;99303.56;128284;1098;23908;-79
2021/05/16 02:29:58;;;;;;;7.63;6.08;;;;;;;12.85;75.67;99305.81;128296;1098;22332;-77
2021/05/16 02:32:27;;;;;;;8.50;6.47;;;;;;;12.85;75.60;99303.16;128272;1098;22334;-79
2021/05/16 02:34:57;;;;;;;7.68;6.90;;;;;;;12.85;75.63;99297.05;128261;1101;22341;-79
2021/05/16 02:37:43;;;;;;;8.75;6.70;;;;;;;12.82;75.60;99297.47;128061;1098;24486;-79
2021/05/16 02:40:14;;;;;;;7.73;7.03;;;;;;;12.79;75.75;99290.73;127968;1104;22487;-78
2021/05/16 02:42:45;;;;;;;8.53;7.63;;;;;;;12.76;75.73;99291.16;127613;1101;24208;-80
2021/05/16 02:45:16;;;;;;;9.48;8.35;;;;;;;12.75;75.92;99289.53;127546;1105;23908;-78
2021/05/16 02:47:46;;;;;;;;;;;;;;;12.69;75.84;99291.20;127567;1107;22408;-79
2021/05/16 02:50:19;;;;;;;10.80;9.87;;;;;;;12.60;75.95;99281.03;127107;1108;21274;-80
2021/05/16 02:52:59;;;;;;;11.70;10.35;;;;;;;12.57;76.30;99274.30;127121;1108;22587;-79
2021/05/16 02:55:33;;;;;;;11.68;10.45;;;;;;;12.54;76.07;99272.06;127206;1106;25720;-79
2021/05/16 02:58:03;;;;;;;12.23;11.08;;;;;;;12.55;76.28;99273.68;127080;1104;25112;-80
2021/05/16 03:00:39;;;;;;;12.63;11.53;;;;;;;12.60;76.63;99281.03;127586;1105;23225;-79
2021/05/16 03:03:10;;;;;;;13.85;12.45;;;;;;;12.63;76.91;99275.31;127910;1105;22361;-79
2021/05/16 03:05:40;;;;;;;14.03;12.73;;;;;;;12.61;76.35;99280.80;128027;1105;22372;-80
2021/05/16 03:08:10;;;;;;;15.15;11.28;;;;;;;12.63;76.63;99273.48;128274;1101;24482;-80
2021/05/16 03:10:41;;;;;;;15.35;13.95;;;;;;;12.61;76.47;99280.80;127989;1100;22449;-79
2021/05/16 03:13:11;;;;;;;16.03;14.35;;;;;;;12.60;76.56;99270.42;127991;1104;22467;-80
2021/05/16 03:15:42;;;;;;;15.45;13.88;;;;;;;12.58;76.75;99264.51;128036;1102;22345;-79
2021/05/16 03:18:13;;;;;;;16.58;14.90;;;;;;;12.55;76.69;99267.57;128304;1101;22331;-79
2021/05/16 03:20:45;;;;;;;16.25;14.65;;;;;;;12.54;76.80;99271.25;127956;1104;22328;-79
2021/05/16 03:23:18;;;;;;;16.80;14.85;;;;;;;12.54;76.83;99276.55;127645;1104;22343;-78
2021/05/16 03:25:48;;;;;;;16.43;14.90;;;;;;;12.55;77.21;99271.03;127968;1104;22892;-79
2021/05/16 03:28:18;;;;;;;17.73;16.00;;;;;;;12.58;77.18;99278.56;127996;1104;22362;-79
2021/05/16 03:30:55;;;;;;;16.73;15.13;;;;;;;12.58;76.92;99277.76;128000;1104;22358;-80
2021/05/16 03:33:27;;;;;;;18.10;16.30;;;;;;;12.56;76.91;99279.78;127685;1104;22341;-79
2021/05/16 03:35:57;;;;;;;16.83;15.10;;;;;;;12.53;77.13;99290.80;127999;1104;22414;-81
2021/05/16 03:38:31;;;;;;;15.75;14.25;;;;;;;12.47;76.72;99290.61;128017;1098;22336;-79
2021/05/16 03:41:04;;;;;;;14.78;13.45;;;;;;;12.44;77.07;99282.27;128197;1101;22437;-79
2021/05/16 03:43:34;;;;;;;14.75;13.35;;;;;;;12.40;77.02;99292.46;128067;1101;24238;-79
2021/05/16 03:46:04;;;;;;;15.38;13.98;;;;;;;12.36;77.19;99290.41;128113;1101;23695;-79
2021/05/16 03:48:37;;;;;;;15.28;13.88;;;;;;;12.35;77.28;99292.25;128349;1098;24164;-79
2021/05/16 03:51:08;;;;;;;15.35;13.10;;;;;;;12.35;77.43;99284.30;128145;1098;22337;-79
2021/05/16 03:53:42;;;;;;;13.93;12.50;;;;;;;12.40;77.53;99281.86;128312;1098;24324;-78
2021/05/16 03:56:12;;;;;;;16.10;13.05;;;;;;;12.48;77.84;99271.04;128046;1101;22524;-79
2021/05/16 03:58:44;;;;;;;;;;;;;;;12.53;77.58;99277.55;128088;1098;24488;-80
2021/05/16 04:01:16;;;;;;;12.50;11.30;;;;;;;12.47;77.53;99279.20;128134;1101;21362;-79
2021/05/16 04:03:46;;;;;;;11.50;10.30;;;;;;;12.42;77.18;99287.75;128056;1101;22353;-79
2021/05/16 04:06:26;;;;;;;12.48;11.38;;;;;;;12.39;77.47;99284.70;128540;1101;22384;-79
2021/05/16 04:08:58;;;;;;;14.57;12.27;;;;;;;12.41;77.46;99277.38;128129;1102;22350;-78
2021/05/16 04:11:28;;;;;;;12.93;11.55;;;;;;;12.42;77.63;99274.51;128067;1098;24192;-78
2021/05/16 04:13:57;;;;;;;12.58;11.28;;;;;;;12.44;77.43;99267.19;128066;1102;22459;-75
2021/05/16 04:16:27;;;;;;;12.55;11.35;;;;;;;12.50;77.82;99276.15;128394;1098;22356;-80
2021/05/16 04:18:57;;;;;;;12.58;11.28;;;;;;;12.57;77.72;99284.89;128074;1101;22455;-78
2021/05/16 04:21:27;;;;;;;13.85;10.30;;;;;;;12.61;77.56;99280.80;128072;1099;22353;-79
2021/05/16 04:23:57;;;;;;;12.03;10.75;;;;;;;12.66;77.50;99286.31;128086;1101;22854;-79
2021/05/16 04:26:27;;;;;;;13.05;10.38;;;;;;;12.67;77.53;99281.82;128050;1099;25190;-79
2021/05/16 04:28:57;;;;;;;11.98;10.78;;;;;;;12.67;77.30;99272.03;128113;1098;24186;-79
2021/05/16 04:31:27;;;;;;;12.18;11.08;;;;;;;12.68;77.41;99273.66;128102;1100;22383;-78
2021/05/16 04:33:57;;;;;;;12.18;11.08;;;;;;;12.76;77.49;99269.14;128271;1098;24493;-79
2021/05/16 04:36:27;;;;;;;16.15;12.68;;;;;;;12.79;77.50;99269.54;128331;1100;22382;-79
2021/05/16 04:38:56;;;;;;;15.30;12.00;;;;;;;12.82;77.20;99273.62;128132;1098;23903;-78
2021/05/16 04:41:27;;;;;;;12.93;11.68;;;;;;;12.84;77.40;99276.88;128292;1101;22365;-79
2021/05/16 04:43:56;;;;;;;13.58;12.18;;;;;;;12.86;77.18;99272.17;128089;1101;24198;-79
2021/05/16 04:46:27;;;;;;;15.10;13.65;;;;;;;12.93;77.60;99260.55;128332;1101;22353;-79
2021/05/16 04:48:57;;;;;;;15.70;11.70;;;;;;;13.04;77.44;99267.02;128363;1098;25427;-79
2021/05/16 04:51:30;;;;;;;14.10;12.50;;;;;;;13.11;77.29;99265.15;128229;1101;23316;-79
2021/05/16 04:54:00;;;;;;;15.05;13.53;;;;;;;13.16;77.26;99259.20;128314;1098;24246;-78
2021/05/16 04:56:30;;;;;;;14.30;12.53;;;;;;;13.26;77.46;99258.78;128076;1101;22386;-78
2021/05/16 04:59:01;;;;;;;11.40;10.40;;;;;;;13.42;77.59;99261.75;128275;1100;22385;-79
2021/05/16 05:01:31;;;;;;;11.60;10.43;;;;;;;13.54;77.18;99269.86;128041;1101;22350;-80
2021/05/16 05:04:06;;;;;;;10.85;9.75;;;;;;;13.67;76.52;99270.81;128296;1102;22340;-78
2021/05/16 05:06:39;;;;;;;10.80;9.80;;;;;;;13.70;76.18;99267.73;128264;1098;22364;-78
2021/05/16 05:09:09;;;;;;;10.98;8.73;;;;;;;13.84;76.52;99278.04;128057;1101;24520;-78
2021/05/16 05:11:48;;;;;;;10.88;9.68;;;;;;;14.07;76.53;99274.80;128036;1101;22364;-78
2021/05/16 05:14:17;;;;;;;11.65;9.73;;;;;;;14.35;76.53;99282.31;128035;1101;25087;-79
2021/05/16 05:16:47;;;;;;;9.50;8.60;;;;;;;14.57;75.72;99273.98;127648;1106;22383;-78
2021/05/16 05:19:17;;;;;;;10.37;8.20;;;;;;;14.80;74.84;99276.00;127560;1107;22363;-78
2021/05/16 05:21:48;;;;;;;10.03;9.03;;;;;;;14.93;73.65;99275.04;127611;1104;22368;-78
2021/05/16 05:24:18;;;;;;;9.70;8.53;;;;;;;14.83;72.61;99272.90;127675;1104;22375;-79
2021/05/16 05:26:48;;;;;;;9.88;8.85;;;;;;;14.75;72.07;99276.64;127160;1107;22391;-78
2021/05/16 05:29:18;;;;;;;8.98;8.08;;;;;;;14.69;72.07;99276.70;127539;1108;22371;-80
2021/05/16 05:31:49;;;;;;;8.87;8.00;;;;;;;14.64;72.19;99273.92;127593;1108;22362;-79
2021/05/16 05:34:20;;;;;;;9.47;8.30;;;;;;;14.57;72.09;99266.82;127655;1105;22350;-79
2021/05/16 05:36:50;;;;;;;8.37;7.57;;;;;;;14.51;72.03;99269.55;127147;1107;22397;-78
2021/05/16 05:39:21;;;;;;;9.28;8.35;;;;;;;14.48;72.38;99256.66;127543;1107;22824;-78
2021/05/16 05:41:51;;;;;;;8.88;8.05;;;;;;;14.52;72.72;99263.99;127165;1105;24495;-79
2021/05/16 05:44:21;;;;;;;10.25;9.25;;;;;;;14.66;72.51;99259.38;127107;1108;22362;-78
2021/05/16 05:46:51;;;;;;;9.73;8.83;;;;;;;14.79;72.75;99267.21;127646;1104;24161;-79
2021/05/16 05:49:23;;;;;;;10.33;9.08;;;;;;;14.95;72.88;99265.78;127637;1107;22355;-78
2021/05/16 05:51:52;;;;;;;;;;;;;;;15.00;71.95;99265.94;127637;1107;22480;-78
2021/05/16 05:54:22;;;;;;;10.35;9.35;;;;;;;15.04;71.87;99259.13;127731;1105;22998;-80
2021/05/16 05:56:52;;;;;;;9.53;8.55;;;;;;;15.12;71.30;99265.18;128031;1102;24482;-78
2021/05/16 05:59:23;;;;;;;8.73;7.93;;;;;;;15.07;70.65;99260.55;127798;1105;22399;-78
2021/05/16 06:01:52;;;;;;;12.85;11.55;;;;;;;15.08;70.69;99256.03;128112;1101;22401;-78
2021/05/16 06:04:22;;;;;;;9.75;7.93;;;;;;;15.13;70.78;99258.81;128077;1101;25022;-78
2021/05/16 06:06:52;;;;;;;8.48;7.53;;;;;;;15.35;70.99;99259.16;128054;1104;22365;-78
2021/05/16 06:09:22;;;;;;;8.63;7.65;;;;;;;15.59;70.85;99257.38;127711;1102;24539;-78
2021/05/16 06:11:52;;;;;;;8.43;7.63;;;;;;;15.79;70.36;99257.12;127533;1104;25013;-78
2021/05/16 06:14:22;;;;;;;11.80;8.13;;;;;;;16.12;70.50;99259.25;127688;1105;22409;-77
2021/05/16 06:16:52;;;;;;;7.28;6.68;;;;;;;16.48;68.68;99256.36;127565;1105;22363;-76
2021/05/16 06:19:21;;;;;;;7.80;6.53;;;;;;;16.78;67.76;99267.96;127525;1106;22379;-76
2021/05/16 06:21:52;;;;;;;7.60;6.80;;;;;;;17.19;67.43;99264.25;127473;1105;24518;-74
2021/05/16 06:24:21;;;;;;;7.85;7.00;;;;;;;17.62;66.07;99265.58;127530;1108;22370;-75
2021/05/16 06:26:52;;;;;;;7.75;6.98;;;;;;;17.99;64.52;99271.31;127643;1104;22354;-75
2021/05/16 06:29:21;;;;;;;9.10;6.98;;;;;;;18.35;63.68;99272.67;127926;1102;24260;-75
2021/05/16 06:31:51;;;;;;;8.13;7.25;;;;;;;18.70;61.72;99270.77;127974;1104;22368;-76
2021/05/16 06:34:21;;;;;;;7.15;6.43;;;;;;;18.86;60.25;99269.11;127968;1104;22375;-75
2021/05/16 06:36:51;;;;;;;8.90;7.65;;;;;;;18.95;59.55;99283.69;127980;1102;22383;-75
2021/05/16 06:39:21;;;;;;;27.77;23.23;;;;;;;19.08;59.78;99277.16;128045;1101;22478;-76
2021/05/16 06:41:51;;;;;;;11.98;7.58;;;;;;;19.48;59.26;99276.80;128053;1101;25016;-75
2021/05/16 06:44:25;;;;;;;7.40;6.28;;;;;;;19.78;58.35;99275.52;128248;1100;22362;-75
2021/05/16 06:46:55;;;;;;;8.13;4.83;;;;;;;20.01;56.27;99274.38;128129;1099;24479;-75
2021/05/16 06:49:25;;;;;;;5.30;4.60;;;;;;;19.91;55.12;99281.26;128042;1103;22397;-75
2021/05/16 06:51:54;;;;;;;5.78;5.15;;;;;;;19.77;55.53;99282.75;128010;1101;22358;-75
2021/05/16 06:54:25;;;;;;;5.10;4.60;;;;;;;19.94;55.25;99280.75;128057;1100;22375;-76
2021/05/16 06:56:54;;;;;;;6.13;4.55;;;;;;;20.08;55.00;99291.05;128003;1104;22378;-75
2021/05/16 06:59:27;;;;;;;5.18;4.53;;;;;;;20.33;54.44;99287.77;127593;1108;22411;-75
2021/05/16 07:01:57;;;;;;;6.38;5.78;;;;;;;20.56;53.56;99294.63;127518;1105;24083;-76
2021/05/16 07:04:27;;;;;;;6.75;4.25;;;;;;;20.66;52.86;99287.47;127644;1108;22391;-76
2021/05/16 07:06:57;;;;;;;5.50;4.30;;;;;;;20.67;52.35;99289.08;127515;1105;24371;-76
2021/05/16 07:09:28;;;;;;;4.73;4.08;;;;;;;21.05;53.24;99283.61;127483;1108;22468;-74
2021/05/16 07:11:57;;;;;;;4.13;3.45;;;;;;;21.26;51.19;99295.23;127486;1105;22394;-75
2021/05/16 07:14:28;;;;;;;3.98;3.05;;;;;;;21.36;50.64;99298.01;127591;1105;22420;-75
2021/05/16 07:16:58;;;;;;;4.60;2.60;;;;;;;21.17;49.45;99291.46;127637;1102;22985;-74
2021/05/16 07:19:27;;;;;;;5.63;3.43;;;;;;;21.25;50.58;99293.63;128263;1101;22465;-75
2021/05/16 07:21:57;;;;;;;3.80;2.68;;;;;;;21.63;48.79;99292.42;128299;1101;22377;-76
2021/05/16 07:24:27;;;;;;;3.33;2.65;;;;;;;21.95;49.07;99300.23;128100;1102;22375;-75
2021/05/16 07:26:58;;;;;;;3.70;3.15;;;;;;;22.50;48.02;99289.77;127970;1105;22372;-76
2021/05/16 07:29:27;;;;;;;3.20;2.80;;;;;;;22.80;46.12;99288.88;128049;1104;22387;-76
2021/05/16 07:31:57;;;;;;;4.40;3.08;;;;;;;22.86;44.81;99287.78;128011;1104;22337;-76
2021/05/16 07:34:28;;;;;;;5.50;4.23;;;;;;;22.78;45.10;99289.14;127993;1104;22386;-77
2021/05/16 07:36:57;;;;;;;4.48;3.80;;;;;;;22.75;45.19;99294.27;127989;1105;22373;-77
2021/05/16 07:39:27;;;;;;;6.15;2.30;;;;;;;22.61;44.47;99295.92;128050;1101;24199;-75
2021/05/16 07:41:57;;;;;;;3.43;1.88;;;;;;;22.54;44.42;99294.31;127954;1102;22547;-75
2021/05/16 07:44:27;;;;;;;2.47;1.47;;;;;;;22.25;43.42;99295.97;128011;1101;22378;-75
2021/05/16 07:46:57;;;;;;;6.63;4.03;;;;;;;21.76;44.44;99294.59;128029;1101;22409;-75
2021/05/16 07:49:27;;;;;;;2.95;2.25;;;;;;;21.76;45.48;99293.77;127990;1099;24491;-76
2021/05/16 07:51:57;;;;;;;8.33;5.65;;;;;;;21.98;45.28;99293.52;128066;1101;22353;-76
2021/05/16 07:54:27;;;;;;;3.33;2.80;;;;;;;22.14;44.55;99300.52;128073;1100;22357;-77
2021/05/16 07:56:58;;;;;;;4.23;3.83;;;;;;;22.10;44.18;99299.45;128052;1101;22352;-75
2021/05/16 07:59:28;;;;;;;4.73;2.80;;;;;;;21.91;43.97;99306.43;127980;1104;22365;-75
2021/05/16 08:01:57;;;;;;;2.73;1.87;;;;;;;21.77;44.22;99298.09;127987;1102;25109;-75
2021/05/16 08:04:28;;;;;;;8.40;2.18;;;;;;;21.87;45.66;99306.16;127981;1104;22370;-75
2021/05/16 08:06:58;;;;;;;2.08;1.48;;;;;;;22.17;44.51;99300.02;127975;1101;23140;-75
2021/05/16 08:09:30;;;;;;;2.10;1.60;;;;;;;22.07;43.59;99295.41;127653;1105;22377;-75
2021/05/16 08:12:00;;;;;;;3.05;1.38;;;;;;;21.90;43.92;99302.14;128099;1104;22357;-76
2021/05/16 08:14:31;;;;;;;3.00;2.05;;;;;;;21.67;43.56;99301.56;127696;1101;22604;-75
2021/05/16 08:17:04;;;;;;;2.70;1.93;;;;;;;21.35;44.41;99302.55;127609;1104;22362;-76
2021/05/16 08:19:33;;;;;;;5.07;2.10;;;;;;;20.93;44.52;99297.27;128013;1104;22371;-76
2021/05/16 08:22:03;;;;;;;5.87;1.97;;;;;;;20.64;44.85;99300.33;128018;1101;24166;-77
2021/05/16 08:24:35;;;;;;;2.70;1.38;;;;;;;20.41;45.54;99300.69;127964;1101;24576;-76
2021/05/16 08:27:08;;;;;;;6.05;3.70;;;;;;;20.17;46.17;99303.73;127584;1108;22354;-76
2021/05/16 08:29:38;;;;;;;2.70;2.00;;;;;;;19.86;46.46;99308.03;127509;1108;22374;-77
2021/05/16 08:32:12;;;;;;;4.18;2.10;;;;;;;19.52;47.04;99302.81;127534;1108;22455;-76
2021/05/16 08:34:42;;;;;;;2.90;2.03;;;;;;;19.29;48.18;99308.45;127100;1105;22434;-76
2021/05/16 08:37:13;;;;;;;3.45;2.18;;;;;;;19.11;48.37;99301.56;127524;1104;22493;-76
2021/05/16 08:39:43;;;;;;;3.30;2.40;;;;;;;18.98;49.12;99297.38;127593;1107;23136;-76
2021/05/16 08:42:16;;;;;;;3.60;1.80;;;;;;;18.89;49.19;99298.86;127597;1104;23333;-76
2021/05/16 08:44:46;;;;;;;3.80;2.80;;;;;;;18.78;48.94;99297.12;127617;1104;22352;-76
2021/05/16 08:47:16;;;;;;;3.50;2.50;;;;;;;18.65;48.94;99294.77;128010;1104;22352;-76
2021/05/16 08:49:46;;;;;;;5.30;1.93;;;;;;;18.53;49.40;99302.91;128039;1101;22210;-76
2021/05/16 08:52:16;;;;;;;2.88;2.20;;;;;;;18.46;50.17;99310.26;127935;1101;22349;-76
2021/05/16 08:54:52;;;;;;;4.75;2.58;;;;;;;18.44;50.23;99320.41;127991;1104;22606;-75
2021/05/16 08:57:23;;;;;;;2.73;2.00;;;;;;;18.35;50.04;99318.13;128005;1101;22345;-76
2021/05/16 09:00:09;;;;;;;2.13;1.90;;;;;;;18.27;50.08;99317.74;127563;1105;24498;-75
2021/05/16 09:03:03;;;;;;;3.33;1.93;;;;;;;18.15;50.15;99325.02;127628;1106;22439;-76
2021/05/16 09:05:51;;;;;;;3.43;1.95;;;;;;;18.02;50.80;99323.47;127609;1107;22380;-75
2021/05/16 09:08:24;;;;;;;4.75;2.20;;;;;;;17.91;50.77;99333.17;127598;1107;22486;-76
2021/05/16 09:10:58;;;;;;;3.50;2.05;;;;;;;17.87;51.06;99334.71;127674;1104;22368;-74
2021/05/16 09:13:33;;;;;;;2.95;1.75;;;;;;;17.82;51.54;99331.94;128007;1101;24499;-77
2021/05/16 09:16:10;;;;;;;3.03;2.23;;;;;;;17.85;51.59;99337.61;128078;1101;22432;-76
2021/05/16 09:18:52;;;;;;;3.75;2.03;;;;;;;17.99;51.61;99334.63;128177;1100;22349;-75
2021/05/16 09:21:32;;;;;;;9.63;2.63;;;;;;;18.08;51.28;99343.89;128075;1101;22356;-77
2021/05/16 09:24:22;;;;;;;5.80;2.45;;;;;;;18.13;50.79;99348.50;128114;1101;22404;-76
2021/05/16 09:26:58;;;;;;;4.38;2.55;;;;;;;18.15;51.03;99344.53;127640;1103;22423;-76
2021/05/16 09:29:40;;;;;;;6.48;2.53;;;;;;;18.17;50.82;99342.44;127598;1107;22433;-75
2021/05/16 09:32:10;;;;;;;5.90;3.05;;;;;;;18.16;50.59;99345.34;127658;1105;22816;-77
2021/05/16 09:34:40;;;;;;;4.13;2.25;;;;;;;18.17;50.73;99345.12;127640;1103;24569;-76
2021/05/16 09:37:13;;;;;;;8.35;2.78;;;;;;;18.20;50.68;99351.84;127564;1105;22402;-76
2021/05/16 09:39:45;;;;;;;4.70;2.65;;;;;;;18.20;50.77;99355.33;127548;1104;25772;-76
2021/05/16 09:42:17;;;;;;;6.15;4.80;;;;;;;18.14;50.93;99350.14;127646;1105;22410;-76
2021/05/16 09:44:49;;;;;;;6.30;3.15;;;;;;;18.17;51.51;99352.33;127554;1106;22435;-75
2021/05/16 09:47:41;;;;;;;2.83;2.53;;;;;;;18.18;51.01;99354.75;127614;1106;22427;-76
2021/05/16 09:50:15;;;;;;;3.88;2.30;;;;;;;18.21;51.53;99356.13;127509;1105;24495;-75
2021/05/16 09:53:02;;;;;;;3.33;1.97;;;;;;;18.20;51.21;99349.98;127100;1105;22360;-75
2021/05/16 09:55:35;;;;;;;2.08;1.50;;;;;;;18.13;50.62;99356.52;127543;1108;22487;-76
2021/05/16 09:58:05;;;;;;;3.75;1.50;;;;;;;18.05;50.54;99357.73;127557;1108;22369;-76
2021/05/16 10:00:35;;;;;;;2.65;1.48;;;;;;;17.95;50.49;99365.56;127092;1108;22404;-76
2021/05/16 10:03:07;;;;;;;3.88;1.70;;;;;;;17.81;50.73;99373.06;127073;1105;22380;-77
2021/05/16 10:05:37;;;;;;;3.93;2.35;;;;;;;17.74;50.68;99359.83;128064;1104;22361;-77
2021/05/16 10:08:07;;;;;;;2.90;2.10;;;;;;;17.69;50.73;99365.05;128009;1103;22373;-76
2021/05/16 10:10:39;;;;;;;3.25;1.85;;;;;;;17.63;51.13;99360.69;127709;1105;22349;-75
2021/05/16 10:13:09;;;;;;;3.23;1.60;;;;;;;17.62;51.15;99362.52;127997;1104;22452;-75
2021/05/16 10:15:40;;;;;;;3.78;1.60;;;;;;;17.61;51.13;99366.25;127700;1101;22396;-76
2021/05/16 10:18:10;;;;;;;;;;;;;;;17.46;50.89;99365.97;128017;1105;22364;-75
2021/05/16 10:20:41;;;;;;;2.73;1.50;;;;;;;17.33;51.37;99358.23;127999;1104;22044;-76
2021/05/16 10:23:11;;;;;;;1.85;1.58;;;;;;;17.34;51.48;99365.18;127987;1104;22794;-76
2021/05/16 10:25:46;;;;;;;3.63;1.23;;;;;;;17.31;51.46;99370.98;127985;1104;22349;-76
2021/05/16 10:28:17;;;;;;;3.60;1.68;;;;;;;17.26;51.17;99363.70;128129;1101;22442;-76
2021/05/16 10:31:00;;;;;;;6.25;2.00;;;;;;;17.26;51.74;99369.03;128146;1101;22443;-77
2021/05/16 10:33:34;;;;;;;3.15;1.75;;;;;;;17.22;51.46;99367.86;127996;1104;22389;-78
2021/05/16 10:36:06;;;;;;;2.43;1.18;;;;;;;17.18;51.69;99364.05;127900;1102;25776;-77
2021/05/16 10:38:40;;;;;;;2.55;1.40;;;;;;;17.29;52.45;99371.20;127658;1105;22899;-78
2021/05/16 10:41:25;;;;;;;3.08;1.48;;;;;;;17.41;52.24;99369.33;127626;1105;22377;-76
2021/05/16 10:44:29;;;;;;;2.25;1.63;;;;;;;17.54;52.55;99373.59;127991;1102;24662;-77
2021/05/16 10:46:58;;;;;;;2.77;1.60;;;;;;;17.70;52.43;99374.71;127649;1105;22362;-78
2021/05/16 10:49:32;;;;;;;2.33;2.13;;;;;;;17.84;51.95;99362.71;127599;1107;22390;-77
2021/05/16 10:52:27;;;;;;;3.18;1.70;;;;;;;17.93;52.39;99359.67;127828;1104;23117;-75
2021/05/16 10:55:07;;;;;;;2.63;1.65;;;;;;;18.07;51.31;99369.00;127958;1104;22387;-74
2021/05/16 10:57:39;;;;;;;2.27;1.77;;;;;;;18.18;51.99;99368.11;127985;1101;22696;-76
2021/05/16 11:00:21;;;;;;;2.33;1.28;;;;;;;18.30;51.21;99368.05;128038;1105;23114;-76
2021/05/16 11:03:01;;;;;;;3.38;1.80;;;;;;;18.35;50.24;99371.60;127900;1105;22422;-75
2021/05/16 11:05:59;;;;;;;3.85;1.20;;;;;;;18.34;49.71;99367.31;127990;1104;22380;-77
2021/05/16 11:08:32;;;;;;;2.45;1.20;;;;;;;18.33;49.52;99368.38;128125;1099;23085;-76
2021/05/16 11:11:42;;;;;;;2.43;1.28;;;;;;;18.20;49.23;99367.89;128002;1101;22337;-76
2021/05/16 11:14:38;;;;;;;3.40;1.48;;;;;;;18.17;49.86;99366.50;128211;1101;22745;-76
2021/05/16 11:17:13;;;;;;;3.13;1.35;;;;;;;18.15;49.84;99362.44;127958;1104;22385;-76
2021/05/16 11:19:47;;;;;;;2.88;1.93;;;;;;;18.15;49.92;99368.59;127892;1104;22755;-77
2021/05/16 11:22:19;;;;;;;3.20;1.90;;;;;;;18.18;49.21;99361.96;127606;1106;22371;-76
2021/05/16 11:24:51;;;;;;;2.55;1.60;;;;;;;18.16;49.72;99367.56;127468;1103;22358;-76
2021/05/16 11:27:30;;;;;;;3.03;2.05;;;;;;;18.18;49.54;99351.27;127650;1102;24578;-76
2021/05/16 11:30:11;;;;;;;3.60;2.47;;;;;;;18.14;49.16;99358.16;128019;1104;22371;-76
2021/05/16 11:32:42;;;;;;;4.45;2.90;;;;;;;18.08;49.28;99349.23;128064;1103;24501;-76
2021/05/16 11:35:21;;;;;;;3.40;2.00;;;;;;;18.15;49.35;99343.73;127514;1105;22709;-76
2021/05/16 11:37:56;;;;;;;3.43;1.90;;;;;;;18.16;49.51;99351.52;128012;1103;22366;-77
2021/05/16 11:40:32;;;;;;;3.08;2.20;;;;;;;18.13;49.09;99341.31;127571;1104;24492;-76
2021/05/16 11:43:09;;;;;;;2.10;1.75;;;;;;;18.09;49.16;99342.83;128087;1104;22372;-75
2021/05/16 11:45:42;;;;;;;2.30;1.70;;;;;;;18.11;49.37;99336.20;127579;1105;22427;-75